This is the latest recevied weather packets stored in our database for station/object K5FEP. If no packets are shown the sender has not sent any weather packets the latest 10 day(s).
| Time | Temp. | Humidity | Pressure | Rain* | Wind** | Luminosity | Snow |
|---|---|---|---|---|---|---|---|
| 1777554077 | 12.78° C | 96% | 1010.6 hPa | 0 mm | - | 73 W/m² | - |
| 1777553774 | 12.78° C | 96% | 1011.1 hPa | 0 mm | - | 110 W/m² | - |
| 1777553471 | 12.22° C | 96% | 1010.6 hPa | 0 mm | - | 67 W/m² | - |
| 1777553167 | 12.22° C | 97% | 1010.2 hPa | 0 mm | - | 43 W/m² | - |
| 1777552862 | 12.22° C | 97% | 1009.9 hPa | 0 mm | - | 52 W/m² | - |
| 1777552557 | 12.22° C | 97% | 1010.3 hPa | 0 mm | - | 47 W/m² | - |
| 1777552254 | 12.22° C | 97% | 1010.2 hPa | 0 mm | - | 63 W/m² | - |
| 1777551951 | 12.22° C | 97% | 1010.2 hPa | 0 mm | - | 51 W/m² | - |
| 1777551648 | 12.22° C | 97% | 1010.1 hPa | 0 mm | - | 43 W/m² | - |
| 1777551346 | 12.22° C | 97% | 1009.9 hPa | 0 mm | - | 53 W/m² | - |
| 1777551042 | 11.67° C | 97% | 1010.1 hPa | 0 mm | - | 60 W/m² | - |
| 1777550739 | 11.67° C | 97% | 1009.7 hPa | 0 mm | - | 38 W/m² | - |
| 1777550435 | 11.67° C | 97% | 1009.5 hPa | 0 mm | - | 41 W/m² | - |
| 1777550132 | 11.67° C | 97% | 1009.6 hPa | 0 mm | - | 49 W/m² | - |
| 1777549828 | 11.67° C | 97% | 1009.5 hPa | 0 mm | - | 38 W/m² | - |
| 1777549524 | 11.67° C | 97% | 1009.4 hPa | 0 mm | - | 40 W/m² | - |
| 1777549221 | 11.67° C | 97% | 1009.1 hPa | 0 mm | - | 38 W/m² | - |
| 1777548917 | 11.67° C | 98% | 1009 hPa | 0 mm | - | 56 W/m² | - |
| 1777548614 | 11.67° C | 97% | 1009.1 hPa | 0 mm | - | 53 W/m² | - |
| 1777548311 | 11.67° C | 97% | 1008.8 hPa | 0 mm | - | 38 W/m² | - |
| 1777548009 | 11.11° C | 97% | 1008.8 hPa | 0 mm | - | 31 W/m² | - |
| 1777547703 | 11.11° C | 97% | 1008.3 hPa | 0 mm | - | 26 W/m² | - |
| 1777547400 | 11.11° C | 97% | 1008 hPa | 0 mm | - | 18 W/m² | - |
| 1777547098 | 11.11° C | 97% | 1008.4 hPa | 0 mm | - | 19 W/m² | - |
| 1777546795 | 11.11° C | 97% | 1008.5 hPa | 0 mm | - | 23 W/m² | - |
* Rain latest hour (hover to see other rain measurements)
** Current wind speed in m/s (hover to see current wind gust speed)